Time;durP1;ratioP1;P1;durP2;ratioP2;P2;SDS_P1;SDS_P2;PMS_P1;PMS_P2;Temp;Humidity;BMP_temperature;BMP_pressure;BME280_temperature;BME280_humidity;BME280_pressure;Samples;Min_cycle;Max_cycle;Signal;HPM_P1;HPM_P2
2022/03/17 00:00:07;;;;;;;37.45;18.67;;;6.20;99.90;;;;;;5001639;28;20041;-40
2022/03/17 00:02:33;;;;;;;36.83;19.70;;;6.20;99.90;;;;;;5001858;28;20042;-37
2022/03/17 00:04:59;;;;;;;37.45;18.23;;;6.00;99.90;;;;;;5003556;28;20473;-38
2022/03/17 00:07:24;;;;;;;40.47;18.55;;;5.90;99.90;;;;;;5006744;28;20105;-37
2022/03/17 00:09:50;;;;;;;40.25;18.85;;;5.80;99.90;;;;;;5003287;28;20408;-39
2022/03/17 00:12:16;;;;;;;38.03;17.23;;;5.80;99.90;;;;;;5005831;28;20034;-36
2022/03/17 00:14:41;;;;;;;35.70;18.77;;;5.80;99.90;;;;;;5003931;28;20116;-39
2022/03/17 00:17:08;;;;;;;37.20;17.60;;;5.80;99.90;;;;;;5007046;28;20038;-36
2022/03/17 00:19:34;;;;;;;38.90;19.52;;;5.80;99.90;;;;;;5002504;28;20058;-37
2022/03/17 00:21:59;;;;;;;38.88;19.58;;;5.80;99.90;;;;;;5001304;28;20083;-37
2022/03/17 00:24:25;;;;;;;35.78;17.92;;;5.80;99.90;;;;;;4988704;28;20117;-37
2022/03/17 00:26:51;;;;;;;38.08;19.65;;;5.70;99.90;;;;;;5004968;28;20088;-38
2022/03/17 00:29:19;;;;;;;36.15;18.60;;;5.60;99.90;;;;;;5005681;28;20109;-38
2022/03/17 00:31:44;;;;;;;44.65;20.77;;;5.60;99.90;;;;;;5002699;28;20041;-38
2022/03/17 00:34:10;;;;;;;34.80;17.77;;;5.50;99.90;;;;;;5003003;28;20526;-37
2022/03/17 00:36:36;;;;;;;37.85;19.38;;;5.50;99.90;;;;;;5005343;28;20038;-37
2022/03/17 00:39:08;;;;;;;41.42;18.85;;;5.50;99.90;;;;;;5007055;28;20038;-38
2022/03/17 00:41:34;;;;;;;39.50;19.33;;;5.50;99.90;;;;;;5005365;28;20026;-36
2022/03/17 00:44:00;;;;;;;38.80;19.48;;;5.50;99.90;;;;;;5003273;28;20036;-37
2022/03/17 00:46:26;;;;;;;38.30;19.58;;;5.40;99.90;;;;;;5004532;28;20029;-37
2022/03/17 00:48:52;;;;;;;41.22;17.83;;;5.40;99.90;;;;;;5002948;28;20072;-37
2022/03/17 00:51:17;;;;;;;45.95;20.33;;;5.40;99.90;;;;;;5003982;28;20061;-37
2022/03/17 00:53:44;;;;;;;40.15;19.60;;;5.30;99.90;;;;;;4997975;28;20034;-37
2022/03/17 00:56:09;;;;;;;40.55;20.10;;;5.40;99.90;;;;;;5002070;28;20088;-38
2022/03/17 00:58:35;;;;;;;39.78;19.52;;;5.30;99.90;;;;;;5000188;28;20034;-37
2022/03/17 01:01:02;;;;;;;44.28;20.83;;;5.30;99.90;;;;;;5000263;28;20157;-37
2022/03/17 01:03:27;;;;;;;38.33;19.48;;;5.40;99.90;;;;;;4999833;28;20452;-38
2022/03/17 01:05:53;;;;;;;43.42;19.48;;;5.30;99.90;;;;;;4998426;28;20034;-40
2022/03/17 01:08:19;;;;;;;44.88;20.30;;;5.40;99.90;;;;;;4982510;28;20076;-38
2022/03/17 01:10:45;;;;;;;41.50;19.92;;;5.30;99.90;;;;;;4999808;28;22378;-36
2022/03/17 01:13:11;;;;;;;39.42;20.08;;;5.30;99.90;;;;;;4998627;28;20033;-37
2022/03/17 01:15:36;;;;;;;37.42;18.20;;;5.30;99.90;;;;;;4999050;28;20030;-37
2022/03/17 01:18:02;;;;;;;45.42;19.50;;;5.40;99.90;;;;;;4998189;28;20058;-37
2022/03/17 01:20:29;;;;;;;38.60;18.95;;;5.30;99.90;;;;;;5000039;28;20069;-37
2022/03/17 01:22:55;;;;;;;36.00;17.67;;;5.30;99.90;;;;;;4998517;28;20053;-37
2022/03/17 01:25:21;;;;;;;34.72;18.63;;;5.30;99.90;;;;;;4999561;28;20026;-40
2022/03/17 01:27:46;;;;;;;39.65;18.35;;;5.30;99.90;;;;;;4998886;28;20453;-40
2022/03/17 01:30:12;;;;;;;37.55;18.40;;;5.30;99.90;;;;;;4993819;28;20030;-40
2022/03/17 01:32:39;;;;;;;39.33;18.35;;;5.30;99.90;;;;;;4996476;28;20042;-37
2022/03/17 01:35:07;;;;;;;42.08;19.52;;;5.30;99.90;;;;;;4996990;28;20084;-37
2022/03/17 01:37:33;;;;;;;36.58;16.50;;;5.30;99.90;;;;;;4993496;28;20037;-37
2022/03/17 01:39:59;;;;;;;37.63;18.60;;;5.20;99.90;;;;;;4994660;28;20561;-37
2022/03/17 01:42:25;;;;;;;38.33;18.80;;;5.20;99.90;;;;;;5000084;28;20038;-37
2022/03/17 01:44:50;;;;;;;36.83;17.92;;;5.20;99.90;;;;;;4997421;28;20535;-40
2022/03/17 01:47:29;;;;;;;37.13;18.20;;;5.20;99.90;;;;;;5001444;28;20491;-38
2022/03/17 01:50:12;;;;;;;33.72;18.65;;;5.20;99.90;;;;;;4995836;28;20498;-39
2022/03/17 01:52:39;;;;;;;37.63;18.95;;;5.10;99.90;;;;;;5000118;28;20029;-39
2022/03/17 01:55:06;;;;;;;33.75;16.08;;;5.10;99.90;;;;;;4993061;28;20026;-38
2022/03/17 01:57:32;;;;;;;39.42;19.55;;;5.10;99.90;;;;;;5000746;28;20069;-37
2022/03/17 01:59:59;;;;;;;39.05;19.95;;;5.10;99.90;;;;;;4992835;28;20195;-40
2022/03/17 02:02:25;;;;;;;34.92;17.55;;;5.10;99.90;;;;;;4984223;28;20034;-37
2022/03/17 02:04:51;;;;;;;37.08;18.35;;;5.10;99.90;;;;;;4992426;28;20034;-37
2022/03/17 02:07:19;;;;;;;36.28;18.20;;;5.10;99.90;;;;;;5001857;28;20029;-39
2022/03/17 02:09:45;;;;;;;35.47;18.55;;;5.00;99.90;;;;;;5003400;28;20057;-39
2022/03/17 02:15:06;;;;;;;40.15;17.05;;;4.90;99.90;;;;;;4985794;28;20045;-37
2022/03/17 02:17:33;;;;;;;38.55;18.23;;;5.00;99.90;;;;;;5002364;28;20061;-38
2022/03/17 02:20:00;;;;;;;36.25;18.80;;;5.10;99.90;;;;;;5001197;28;20037;-38
2022/03/17 02:22:28;;;;;;;30.88;16.83;;;5.10;99.90;;;;;;5001701;28;20151;-40
2022/03/17 02:27:41;;;;;;;30.83;16.58;;;5.20;99.90;;;;;;5004222;28;20121;-37
2022/03/17 02:30:10;;;;;;;32.63;15.82;;;5.30;99.90;;;;;;5002352;28;20030;-39
2022/03/17 02:32:36;;;;;;;31.67;16.33;;;5.30;99.90;;;;;;4985964;28;20061;-37
2022/03/17 02:35:10;;;;;;;34.15;17.00;;;5.20;99.90;;;;;;5005415;28;20123;-37
2022/03/17 02:37:37;;;;;;;37.60;19.90;;;5.10;99.90;;;;;;5005746;28;20402;-38
2022/03/17 02:40:06;;;;;;;36.38;17.48;;;5.00;99.90;;;;;;5002697;28;20038;-38
2022/03/17 02:42:32;;;;;;;34.13;17.63;;;5.00;99.90;;;;;;5000603;28;20037;-40
2022/03/17 02:44:59;;;;;;;31.60;16.08;;;5.00;99.90;;;;;;5001710;28;20105;-38
2022/03/17 02:47:26;;;;;;;32.35;17.83;;;5.00;99.90;;;;;;5004132;28;20510;-40
2022/03/17 02:49:54;;;;;;;36.80;16.75;;;5.00;99.90;;;;;;4986415;28;20022;-37
2022/03/17 02:52:21;;;;;;;31.75;16.20;;;5.00;99.90;;;;;;5005073;28;20029;-39
2022/03/17 02:54:47;;;;;;;37.53;18.17;;;5.10;99.90;;;;;;5002250;28;20065;-37
2022/03/17 02:57:12;;;;;;;36.60;18.45;;;5.10;99.90;;;;;;5001385;28;20042;-38
2022/03/17 02:59:38;;;;;;;38.65;17.23;;;5.20;99.90;;;;;;4985992;28;20041;-38
2022/03/17 03:02:04;;;;;;;35.78;17.73;;;5.20;99.90;;;;;;4999456;28;20132;-38
2022/03/17 03:04:33;;;;;;;35.53;17.27;;;5.10;99.90;;;;;;5000821;28;20068;-37
2022/03/17 03:06:59;;;;;;;40.63;19.58;;;5.10;99.90;;;;;;5001564;28;20030;-38
2022/03/17 03:09:24;;;;;;;39.38;19.67;;;5.20;99.90;;;;;;5003193;28;20553;-39
2022/03/17 03:11:50;;;;;;;36.17;19.20;;;5.20;99.90;;;;;;5004405;28;20029;-37
2022/03/17 03:14:15;;;;;;;33.42;17.60;;;5.30;99.90;;;;;;5002522;28;20119;-38
2022/03/17 03:16:41;;;;;;;36.50;18.25;;;5.30;99.90;;;;;;5003007;28;20037;-39
2022/03/17 03:19:07;;;;;;;36.55;18.35;;;5.30;99.90;;;;;;5005746;28;20121;-37
2022/03/17 03:21:32;;;;;;;33.72;17.75;;;5.30;99.90;;;;;;5005364;28;20135;-40
2022/03/17 03:23:58;;;;;;;36.70;17.48;;;5.30;99.90;;;;;;5004219;28;20025;-37
2022/03/17 03:26:23;;;;;;;34.13;18.52;;;5.30;99.90;;;;;;5000493;28;20022;-40
2022/03/17 03:28:49;;;;;;;42.50;18.45;;;5.30;99.90;;;;;;5005188;28;20384;-37
2022/03/17 03:31:15;;;;;;;36.88;18.85;;;5.30;99.90;;;;;;5001026;28;20475;-39
2022/03/17 03:33:41;;;;;;;38.55;19.05;;;5.30;99.90;;;;;;5005743;28;20030;-38
2022/03/17 03:38:51;;;;;;;32.25;17.48;;;5.20;99.90;;;;;;5006995;28;20068;-40
2022/03/17 03:41:17;;;;;;;34.00;18.20;;;5.20;99.90;;;;;;5002240;28;20267;-37
2022/03/17 03:43:42;;;;;;;37.40;17.25;;;5.10;99.90;;;;;;5003883;28;20079;-37
2022/03/17 03:46:08;;;;;;;34.90;17.00;;;5.10;99.90;;;;;;5004510;28;20106;-38
2022/03/17 03:48:34;;;;;;;33.15;16.77;;;5.00;99.90;;;;;;5006319;28;20029;-37
2022/03/17 03:51:00;;;;;;;31.70;16.88;;;4.90;99.90;;;;;;5006254;28;20373;-38
2022/03/17 03:54:12;;;;;;;36.30;18.45;;;5.00;99.90;;;;;;5004623;28;20040;-36
2022/03/17 03:56:11;;;;;;;31.85;17.60;;;5.00;99.90;;;;;;5004068;28;20125;-37
2022/03/17 03:58:36;;;;;;;30.90;17.42;;;5.00;99.90;;;;;;5005412;28;20110;-36
2022/03/17 04:01:02;;;;;;;35.42;17.75;;;4.90;99.90;;;;;;5001027;28;20753;-36
2022/03/17 04:03:28;;;;;;;35.17;17.88;;;4.90;99.90;;;;;;5003075;28;20038;-37
2022/03/17 04:05:53;;;;;;;33.95;16.88;;;4.90;99.90;;;;;;5003752;28;20026;-38
2022/03/17 04:08:19;;;;;;;36.17;18.63;;;5.00;99.90;;;;;;5007523;28;20108;-38
2022/03/17 04:10:45;;;;;;;35.50;17.70;;;5.10;99.90;;;;;;5003565;28;20487;-39
2022/03/17 04:13:10;;;;;;;31.77;16.80;;;5.20;99.90;;;;;;4987786;28;20041;-39
2022/03/17 04:15:36;;;;;;;36.58;17.92;;;5.10;99.90;;;;;;5006163;28;20789;-40
2022/03/17 04:18:02;;;;;;;37.08;17.60;;;5.10;99.90;;;;;;4987427;28;20575;-37
2022/03/17 04:20:27;;;;;;;33.88;17.60;;;5.20;99.90;;;;;;5005440;28;20088;-38
2022/03/17 04:22:53;;;;;;;37.53;17.52;;;5.20;99.90;;;;;;5007270;28;20080;-37
2022/03/17 04:25:19;;;;;;;34.78;17.48;;;5.10;99.90;;;;;;5004159;28;20049;-38
2022/03/17 04:27:45;;;;;;;35.25;17.48;;;5.10;99.90;;;;;;5006535;28;20038;-36
2022/03/17 04:30:10;;;;;;;36.58;17.75;;;5.10;99.90;;;;;;5007992;28;20056;-38
2022/03/17 04:32:36;;;;;;;41.42;20.50;;;5.20;99.90;;;;;;5004186;28;20072;-37
2022/03/17 04:35:02;;;;;;;38.60;21.25;;;5.20;99.90;;;;;;5004497;28;20047;-38
2022/03/17 04:37:28;;;;;;;36.03;17.52;;;5.20;99.90;;;;;;5003694;28;20034;-37
2022/03/17 04:39:54;;;;;;;34.80;17.95;;;5.20;99.90;;;;;;5002941;28;20034;-37
2022/03/17 04:42:19;;;;;;;34.53;16.80;;;5.00;99.90;;;;;;5001529;28;20026;-37
2022/03/17 04:44:45;;;;;;;42.53;19.75;;;4.90;99.90;;;;;;5006253;28;20029;-37
2022/03/17 04:47:11;;;;;;;36.28;19.02;;;4.80;99.90;;;;;;5004930;28;20022;-40
2022/03/17 04:49:36;;;;;;;37.47;18.00;;;4.90;99.90;;;;;;5005943;28;20501;-38
2022/03/17 04:53:26;;;;;;;40.10;19.58;;;4.90;99.90;;;;;;5005571;28;20033;-38
2022/03/17 04:54:48;;;;;;;37.05;19.13;;;4.90;99.90;;;;;;5004725;28;20406;-37
2022/03/17 04:57:13;;;;;;;34.22;17.95;;;4.90;99.90;;;;;;5004794;28;20026;-36
2022/03/17 04:59:39;;;;;;;35.90;18.10;;;5.00;99.90;;;;;;5001344;28;20093;-38
2022/03/17 05:02:05;;;;;;;32.75;17.63;;;5.00;99.90;;;;;;5004507;28;20042;-37
2022/03/17 05:04:32;;;;;;;37.35;18.08;;;4.90;99.90;;;;;;5004049;28;20038;-38
2022/03/17 05:06:58;;;;;;;44.45;21.02;;;4.70;99.90;;;;;;5000676;28;20114;-37
2022/03/17 05:09:24;;;;;;;41.63;20.85;;;4.70;99.90;;;;;;5003548;28;20550;-37
2022/03/17 05:11:49;;;;;;;41.65;20.60;;;4.60;99.90;;;;;;5004271;28;20483;-38
2022/03/17 05:14:15;;;;;;;43.72;19.55;;;4.70;99.90;;;;;;4988798;28;20030;-36
2022/03/17 05:16:41;;;;;;;39.00;19.10;;;4.70;99.90;;;;;;5002420;28;20435;-38
2022/03/17 05:19:07;;;;;;;41.50;21.45;;;4.80;99.90;;;;;;5004151;28;20057;-37
2022/03/17 05:21:34;;;;;;;40.53;19.13;;;4.80;99.90;;;;;;5005133;28;20103;-38
2022/03/17 05:23:59;;;;;;;39.47;19.10;;;4.70;99.90;;;;;;4990005;28;20049;-39
2022/03/17 05:26:25;;;;;;;38.60;19.80;;;4.80;99.90;;;;;;5001751;28;20080;-37
2022/03/17 05:28:51;;;;;;;39.53;20.00;;;4.80;99.90;;;;;;5006417;28;20133;-37
2022/03/17 05:31:16;;;;;;;34.33;18.65;;;4.80;99.90;;;;;;5003340;28;20479;-39
2022/03/17 05:33:42;;;;;;;41.25;19.38;;;4.80;99.90;;;;;;5005940;28;20049;-37
2022/03/17 05:36:08;;;;;;;41.10;20.20;;;4.80;99.90;;;;;;5004636;28;20406;-38
2022/03/17 05:38:34;;;;;;;40.63;19.65;;;4.70;99.90;;;;;;5003699;28;20055;-37
2022/03/17 05:41:00;;;;;;;37.33;19.70;;;4.80;99.90;;;;;;5008563;28;20120;-37
2022/03/17 05:43:25;;;;;;;39.88;19.20;;;4.70;99.90;;;;;;5008893;28;20067;-38
2022/03/17 05:45:51;;;;;;;39.28;20.02;;;4.70;99.90;;;;;;5006543;28;20026;-36
2022/03/17 05:48:17;;;;;;;36.38;19.05;;;4.70;99.90;;;;;;5009564;28;20618;-38
2022/03/17 05:50:45;;;;;;;45.28;20.65;;;4.70;99.90;;;;;;5009789;28;20076;-37
2022/03/17 05:53:11;;;;;;;43.30;20.40;;;4.70;99.90;;;;;;5010344;28;20583;-40
2022/03/17 05:55:37;;;;;;;41.40;19.88;;;4.80;99.90;;;;;;5006888;28;20037;-37
2022/03/17 05:58:04;;;;;;;38.20;19.70;;;4.80;99.90;;;;;;4992560;28;20611;-38
2022/03/17 06:00:31;;;;;;;42.55;19.80;;;4.80;99.90;;;;;;5006576;28;20389;-38
2022/03/17 06:02:58;;;;;;;39.28;19.95;;;4.80;99.90;;;;;;4990931;28;20049;-36
2022/03/17 06:05:25;;;;;;;38.97;19.40;;;4.80;99.90;;;;;;5009002;28;20087;-37
2022/03/17 06:07:53;;;;;;;43.83;19.67;;;4.80;99.90;;;;;;5006484;28;20125;-36
2022/03/17 06:10:22;;;;;;;41.42;19.75;;;4.80;99.90;;;;;;5009274;28;20036;-38
2022/03/17 06:12:51;;;;;;;40.15;19.73;;;4.80;99.90;;;;;;5004897;28;20663;-36
2022/03/17 06:15:18;;;;;;;39.53;20.52;;;4.80;99.90;;;;;;5003308;28;20068;-36
2022/03/17 06:18:04;;;;;;;41.47;20.58;;;4.90;99.90;;;;;;5005631;28;20140;-40
2022/03/17 06:20:34;;;;;;;42.83;21.45;;;4.90;99.90;;;;;;5006531;28;20064;-38
2022/03/17 06:23:02;;;;;;;42.50;20.98;;;4.90;99.90;;;;;;5008896;28;20158;-36
2022/03/17 06:25:30;;;;;;;40.30;20.02;;;5.00;99.90;;;;;;4995755;28;20376;-38
2022/03/17 06:27:56;;;;;;;44.10;19.93;;;5.10;99.90;;;;;;5008143;28;20037;-38
2022/03/17 06:30:27;;;;;;;46.30;21.77;;;5.00;99.90;;;;;;5010931;28;20058;-38
2022/03/17 06:32:54;;;;;;;41.67;20.38;;;5.00;99.90;;;;;;5027242;28;20143;-38
2022/03/17 06:35:21;;;;;;;41.28;20.17;;;5.00;99.90;;;;;;5024985;28;20048;-37
2022/03/17 06:37:53;;;;;;;39.07;21.87;;;4.90;99.90;;;;;;5025900;28;20498;-37
2022/03/17 06:40:20;;;;;;;44.90;22.08;;;4.90;99.90;;;;;;5028617;28;20104;-39
2022/03/17 06:42:46;;;;;;;44.50;21.30;;;4.90;99.90;;;;;;5029673;28;20047;-38
2022/03/17 06:45:12;;;;;;;46.90;21.58;;;4.90;99.90;;;;;;5028981;28;20021;-37
2022/03/17 06:47:39;;;;;;;41.03;20.90;;;4.90;99.90;;;;;;5030005;28;20018;-38
2022/03/17 06:50:06;;;;;;;40.47;21.05;;;5.00;99.90;;;;;;5026902;28;22269;-37
2022/03/17 06:52:31;;;;;;;42.03;21.77;;;5.00;99.90;;;;;;5021625;28;20025;-38
2022/03/17 06:54:57;;;;;;;40.50;21.15;;;5.00;99.90;;;;;;5023614;28;20390;-40
2022/03/17 06:57:23;;;;;;;43.92;20.17;;;5.00;99.90;;;;;;5025563;28;20060;-38
2022/03/17 06:59:49;;;;;;;37.90;20.80;;;5.10;99.90;;;;;;5026136;28;20068;-36
2022/03/17 07:02:16;;;;;;;47.95;22.67;;;5.10;99.90;;;;;;5021970;28;20447;-39
2022/03/17 07:04:43;;;;;;;41.85;19.60;;;5.20;99.90;;;;;;5008282;28;20079;-36
2022/03/17 07:07:09;;;;;;;44.20;20.83;;;5.20;99.90;;;;;;5022018;28;20017;-39
2022/03/17 07:09:36;;;;;;;42.45;22.23;;;5.30;99.90;;;;;;5025807;28;20048;-37
2022/03/17 07:12:02;;;;;;;42.00;20.58;;;5.40;99.90;;;;;;5023164;28;20117;-37
2022/03/17 07:14:28;;;;;;;42.75;19.45;;;5.50;99.90;;;;;;5027507;28;20026;-38
2022/03/17 07:16:53;;;;;;;45.42;21.73;;;5.50;99.90;;;;;;5024347;28;20052;-36
2022/03/17 07:19:19;;;;;;;44.50;21.25;;;5.60;99.90;;;;;;5019781;28;20128;-35
2022/03/17 07:21:45;;;;;;;42.70;21.90;;;5.60;99.90;;;;;;5004535;28;20039;-36
2022/03/17 07:24:10;;;;;;;41.45;22.02;;;5.70;99.90;;;;;;5028277;28;20071;-35
2022/03/17 07:26:36;;;;;;;41.33;20.73;;;5.70;99.90;;;;;;5027784;28;20045;-37
2022/03/17 07:29:03;;;;;;;42.95;20.42;;;5.70;99.90;;;;;;5030804;28;20060;-36
2022/03/17 07:31:29;;;;;;;38.05;19.67;;;5.70;99.90;;;;;;5026292;28;20095;-39
2022/03/17 07:33:55;;;;;;;41.45;20.75;;;5.70;99.90;;;;;;5027832;28;20044;-37
2022/03/17 07:36:22;;;;;;;39.45;20.10;;;5.80;99.90;;;;;;5030867;28;20071;-36
2022/03/17 07:38:48;;;;;;;42.60;20.58;;;5.80;99.90;;;;;;5030327;28;20034;-38
2022/03/17 07:41:14;;;;;;;43.47;20.38;;;5.90;99.90;;;;;;5027366;28;20498;-39
2022/03/17 07:43:43;;;;;;;42.30;21.15;;;5.90;99.90;;;;;;5027940;28;20029;-38
2022/03/17 07:46:10;;;;;;;39.20;19.55;;;5.90;99.90;;;;;;5028151;28;20071;-38
2022/03/17 07:48:35;;;;;;;43.28;21.00;;;5.90;99.90;;;;;;5027803;28;20494;-36
2022/03/17 07:51:01;;;;;;;53.05;24.42;;;5.90;99.90;;;;;;5029685;28;20018;-36
2022/03/17 07:53:27;;;;;;;51.33;24.85;;;5.90;99.90;;;;;;5029385;28;20033;-36
2022/03/17 07:55:54;;;;;;;46.47;22.90;;;6.00;99.90;;;;;;5027965;28;20037;-37
2022/03/17 07:58:24;;;;;;;40.28;20.92;;;6.00;99.90;;;;;;5025803;28;20029;-36
2022/03/17 08:00:55;;;;;;;37.58;20.60;;;6.00;99.90;;;;;;5026809;28;20081;-37
2022/03/17 08:03:21;;;;;;;42.90;21.13;;;6.00;99.90;;;;;;5026072;28;20029;-36
2022/03/17 08:05:47;;;;;;;40.67;19.08;;;6.10;99.90;;;;;;5027273;28;20037;-36
2022/03/17 08:08:17;;;;;;;39.95;20.13;;;6.10;99.90;;;;;;5027030;28;20112;-36
2022/03/17 08:10:43;;;;;;;43.20;20.92;;;6.10;99.90;;;;;;5009590;28;20036;-37
2022/03/17 08:13:09;;;;;;;36.20;19.08;;;6.10;99.90;;;;;;5026157;28;20033;-36
2022/03/17 08:15:38;;;;;;;41.75;20.05;;;6.10;99.90;;;;;;5028100;28;20036;-36
2022/03/17 08:18:06;;;;;;;42.35;19.65;;;6.20;99.90;;;;;;5025986;28;20061;-40
2022/03/17 08:20:35;;;;;;;36.15;20.30;;;6.10;99.90;;;;;;5022079;28;20044;-36
2022/03/17 08:23:01;;;;;;;42.40;20.60;;;6.20;99.90;;;;;;5021189;28;20033;-36
2022/03/17 08:25:27;;;;;;;39.45;19.02;;;6.30;99.90;;;;;;5022165;28;20021;-35
2022/03/17 08:27:54;;;;;;;40.97;20.95;;;6.30;99.90;;;;;;5027268;28;20425;-38
2022/03/17 08:30:20;;;;;;;39.92;20.13;;;6.40;99.90;;;;;;5024510;28;20033;-36
2022/03/17 08:32:46;;;;;;;35.47;18.08;;;6.40;99.90;;;;;;5026051;28;20390;-36
2022/03/17 08:35:14;;;;;;;40.70;19.77;;;6.40;99.90;;;;;;5026292;28;20371;-37
2022/03/17 08:37:45;;;;;;;37.47;19.58;;;6.40;99.90;;;;;;5028887;28;20034;-36
2022/03/17 08:40:12;;;;;;;34.83;18.17;;;6.50;99.90;;;;;;5024927;28;20506;-37
2022/03/17 08:42:38;;;;;;;36.65;18.83;;;6.40;99.90;;;;;;5023346;28;20059;-36
2022/03/17 08:49:18;;;;;;;35.00;18.67;;;6.50;99.90;;;;;;5028400;28;20025;-36
2022/03/17 08:50:42;;;;;;;36.20;18.17;;;6.70;99.90;;;;;;5023479;28;20040;-36
2022/03/17 08:53:08;;;;;;;34.47;18.27;;;6.80;99.90;;;;;;5023475;28;20029;-36
2022/03/17 08:55:36;;;;;;;32.72;15.27;;;6.80;99.90;;;;;;5025088;28;20163;-36
2022/03/17 08:58:02;;;;;;;34.80;17.02;;;6.80;99.90;;;;;;5031881;28;20036;-39
2022/03/17 09:00:30;;;;;;;40.22;19.50;;;6.90;99.90;;;;;;5023391;28;20042;-37
2022/03/17 09:02:59;;;;;;;40.63;19.17;;;6.90;99.90;;;;;;5023788;28;20652;-38
2022/03/17 09:05:25;;;;;;;38.70;20.10;;;7.00;99.90;;;;;;5024671;28;20029;-37
2022/03/17 09:07:50;;;;;;;31.77;17.40;;;7.00;99.90;;;;;;5022635;28;20037;-38
2022/03/17 09:10:16;;;;;;;35.83;18.45;;;6.90;99.90;;;;;;5024595;28;20040;-37
2022/03/17 09:12:42;;;;;;;35.97;17.83;;;6.90;99.90;;;;;;5022131;28;20021;-38
2022/03/17 09:15:08;;;;;;;35.83;18.08;;;7.00;99.90;;;;;;5023305;28;20467;-36
2022/03/17 09:17:39;;;;;;;33.90;17.13;;;7.00;99.90;;;;;;5027595;28;20053;-37
2022/03/17 09:20:08;;;;;;;32.88;16.08;;;6.90;99.90;;;;;;5028381;28;20033;-36
2022/03/17 09:22:34;;;;;;;38.83;18.50;;;6.90;99.90;;;;;;5024675;28;20040;-37
2022/03/17 09:25:00;;;;;;;36.63;17.33;;;6.80;99.90;;;;;;5029375;28;20022;-36
2022/03/17 09:27:28;;;;;;;38.08;18.85;;;6.80;99.90;;;;;;5031357;28;20021;-39
2022/03/17 09:29:54;;;;;;;36.35;18.67;;;6.90;99.90;;;;;;5027938;28;20038;-36
2022/03/17 09:32:20;;;;;;;35.00;18.08;;;6.90;99.90;;;;;;5029597;28;20041;-36
2022/03/17 09:34:46;;;;;;;34.75;18.40;;;6.90;99.90;;;;;;5027360;28;20410;-37
2022/03/17 09:37:12;;;;;;;36.78;18.35;;;6.80;99.90;;;;;;5032027;28;20033;-38
2022/03/17 09:39:45;;;;;;;40.25;17.80;;;6.90;99.90;;;;;;5031509;28;20026;-39
2022/03/17 09:42:15;;;;;;;36.10;18.35;;;6.90;99.90;;;;;;5029031;28;20029;-37
2022/03/17 09:44:41;;;;;;;35.97;17.90;;;7.00;99.90;;;;;;5031295;28;20079;-36
2022/03/17 09:47:09;;;;;;;35.50;18.05;;;7.10;99.90;;;;;;5028357;28;20061;-36
2022/03/17 09:49:37;;;;;;;35.88;18.23;;;7.00;99.90;;;;;;5032211;28;20069;-36
2022/03/17 09:52:10;;;;;;;38.03;18.60;;;7.00;99.90;;;;;;5032413;28;20411;-36
2022/03/17 09:54:35;;;;;;;38.70;18.98;;;7.10;99.90;;;;;;5013835;28;20392;-36
2022/03/17 09:57:01;;;;;;;36.50;18.25;;;7.10;99.90;;;;;;5030927;28;20029;-39
2022/03/17 09:59:27;;;;;;;40.55;18.13;;;7.20;99.90;;;;;;5030744;28;20148;-37
2022/03/17 10:01:53;;;;;;;37.83;18.40;;;7.20;99.90;;;;;;5031469;28;20516;-36
2022/03/17 10:04:19;;;;;;;37.15;17.40;;;7.20;99.90;;;;;;5027007;28;20037;-35
2022/03/17 10:06:46;;;;;;;33.55;17.48;;;7.20;99.90;;;;;;5026480;28;20042;-37
2022/03/17 10:09:12;;;;;;;38.78;17.40;;;7.20;99.90;;;;;;5030807;28;20027;-36
2022/03/17 10:11:37;;;;;;;39.35;18.00;;;7.30;99.90;;;;;;5030349;28;20026;-35
2022/03/17 10:14:07;;;;;;;34.22;17.10;;;7.40;99.90;;;;;;5029450;28;20030;-36
2022/03/17 10:16:34;;;;;;;32.05;17.45;;;7.50;99.90;;;;;;5029787;28;20112;-37
2022/03/17 10:19:04;;;;;;;38.13;17.73;;;7.60;99.90;;;;;;5029661;28;20049;-38
2022/03/17 10:21:34;;;;;;;32.83;16.20;;;7.70;99.90;;;;;;5023853;28;20442;-36
2022/03/17 10:24:02;;;;;;;34.97;17.83;;;7.80;99.90;;;;;;5027709;28;20018;-37
2022/03/17 10:26:34;;;;;;;35.40;18.02;;;7.70;99.90;;;;;;5027558;28;20026;-35
2022/03/17 10:29:20;;;;;;;38.65;18.25;;;7.80;99.90;;;;;;5028341;28;20022;-36
2022/03/17 10:32:06;;;;;;;31.58;17.77;;;7.80;99.90;;;;;;5022636;28;20033;-38
2022/03/17 10:34:36;;;;;;;33.95;17.13;;;7.90;99.90;;;;;;5028240;28;20029;-36
2022/03/17 10:37:09;;;;;;;36.25;16.77;;;7.90;99.90;;;;;;5023960;28;20025;-36
2022/03/17 10:39:36;;;;;;;38.38;18.15;;;7.90;99.90;;;;;;5024675;28;20059;-36
2022/03/17 10:42:09;;;;;;;33.00;17.58;;;7.80;99.90;;;;;;5025207;28;20553;-36
2022/03/17 10:44:40;;;;;;;36.33;17.75;;;7.80;99.90;;;;;;5024810;28;20433;-37
2022/03/17 10:47:05;;;;;;;40.40;17.85;;;7.80;99.90;;;;;;5025181;28;20508;-36
2022/03/17 10:49:31;;;;;;;35.33;16.48;;;7.90;99.90;;;;;;5022351;28;20040;-37
2022/03/17 10:51:57;;;;;;;40.00;18.55;;;8.00;99.90;;;;;;5024104;28;20030;-38
2022/03/17 10:54:24;;;;;;;35.47;17.92;;;7.90;99.90;;;;;;5023086;28;20074;-36
2022/03/17 10:57:02;;;;;;;37.63;18.05;;;7.90;99.90;;;;;;5026496;28;20124;-39
2022/03/17 11:00:00;;;;;;;;;;;7.80;99.90;;;;;;5024783;28;20029;-38
2022/03/17 11:02:26;;;;;;;36.50;17.67;;;7.70;99.90;;;;;;4982146;28;19917;-36
2022/03/17 11:04:52;;;;;;;37.80;18.67;;;7.60;99.90;;;;;;5024382;28;20453;-35
2022/03/17 11:07:19;;;;;;;33.53;17.25;;;7.60;99.90;;;;;;5028981;28;20132;-39
2022/03/17 11:09:46;;;;;;;36.83;19.20;;;7.60;99.90;;;;;;5027636;28;20399;-36
2022/03/17 11:12:17;;;;;;;34.78;17.92;;;7.50;99.90;;;;;;5029086;28;20061;-37
2022/03/17 11:14:49;;;;;;;33.97;17.65;;;7.50;99.90;;;;;;5025479;28;20037;-38
2022/03/17 11:17:21;;;;;;;33.55;16.67;;;7.60;99.90;;;;;;5027110;28;20449;-37
2022/03/17 11:19:47;;;;;;;32.58;17.45;;;7.60;99.90;;;;;;5026310;28;20041;-38
2022/03/17 11:22:15;;;;;;;33.20;16.85;;;7.70;99.90;;;;;;5022313;28;20412;-38
2022/03/17 11:24:42;;;;;;;35.65;17.30;;;7.80;99.90;;;;;;5025074;28;20479;-39
2022/03/17 11:27:13;;;;;;;36.63;17.52;;;7.90;99.90;;;;;;5005401;28;20406;-38
2022/03/17 11:29:49;;;;;;;36.72;17.27;;;7.90;99.90;;;;;;5027388;28;20052;-35
2022/03/17 11:32:29;;;;;;;32.53;16.55;;;8.00;99.90;;;;;;5020404;28;20076;-35
2022/03/17 11:35:15;;;;;;;33.03;16.55;;;8.00;99.90;;;;;;5028392;28;20040;-35
2022/03/17 11:37:41;;;;;;;32.45;16.50;;;8.00;99.90;;;;;;5024170;28;20029;-35
2022/03/17 11:40:10;;;;;;;31.92;16.23;;;8.00;99.90;;;;;;5025265;28;20439;-36
2022/03/17 11:42:42;;;;;;;38.38;18.73;;;8.00;99.90;;;;;;5024718;28;20079;-35
2022/03/17 11:45:36;;;;;;;41.28;19.95;;;8.00;99.90;;;;;;5027223;28;20025;-38
2022/03/17 11:48:07;;;;;;;33.88;17.70;;;8.00;99.90;;;;;;5025104;28;20033;-36
2022/03/17 11:50:40;;;;;;;39.80;18.55;;;8.00;99.90;;;;;;5023689;28;20479;-36
2022/03/17 11:53:14;;;;;;;41.40;19.95;;;8.00;99.90;;;;;;5026927;28;20087;-37
2022/03/17 11:55:46;;;;;;;37.42;18.67;;;8.00;99.90;;;;;;5023265;28;20037;-37
2022/03/17 11:58:25;;;;;;;41.22;19.42;;;7.90;99.90;;;;;;5028208;28;20033;-35
2022/03/17 12:01:11;;;;;;;38.03;20.17;;;8.00;99.90;;;;;;5028999;28;20462;-35
2022/03/17 12:03:46;;;;;;;39.90;18.50;;;8.00;99.90;;;;;;5025372;28;20063;-36
2022/03/17 12:06:15;;;;;;;37.05;19.25;;;8.00;99.90;;;;;;5025838;28;20032;-36
2022/03/17 12:08:41;;;;;;;;;;;8.00;99.90;;;;;;5027145;28;20060;-37
2022/03/17 12:11:10;;;;;;;42.13;19.70;;;8.00;99.90;;;;;;5028949;28;19916;-35
2022/03/17 12:13:36;;;;;;;39.80;18.52;;;8.00;99.90;;;;;;5025820;28;20029;-35
2022/03/17 12:16:03;;;;;;;43.58;18.52;;;8.10;99.90;;;;;;5026430;28;20071;-36
2022/03/17 12:18:29;;;;;;;39.42;19.88;;;8.10;99.90;;;;;;5022638;28;20049;-37
2022/03/17 12:20:57;;;;;;;40.15;18.98;;;8.00;99.90;;;;;;5011734;28;20039;-36
2022/03/17 12:23:45;;;;;;;40.55;20.63;;;8.10;99.90;;;;;;5026694;28;20029;-38
2022/03/17 12:26:11;;;;;;;42.55;19.35;;;8.00;99.90;;;;;;5032339;28;20099;-35
2022/03/17 12:28:46;;;;;;;39.28;20.00;;;8.00;99.90;;;;;;5025369;28;20585;-36
2022/03/17 12:31:12;;;;;;;41.70;19.63;;;8.00;99.90;;;;;;5027079;28;20741;-39
2022/03/17 12:33:47;;;;;;;41.95;20.13;;;8.10;99.90;;;;;;5026325;28;20025;-37
2022/03/17 12:36:15;;;;;;;45.22;21.20;;;8.10;99.90;;;;;;5020661;28;21600;-36
2022/03/17 12:38:41;;;;;;;43.13;21.52;;;8.20;99.90;;;;;;5021790;28;20025;-38
2022/03/17 12:41:13;;;;;;;42.70;20.42;;;8.20;99.90;;;;;;5027183;28;20494;-38
2022/03/17 12:43:39;;;;;;;39.45;20.08;;;8.30;99.90;;;;;;5021710;28;20040;-37
2022/03/17 12:46:05;;;;;;;45.10;20.75;;;8.40;99.90;;;;;;5004029;28;20029;-39
2022/03/17 12:48:34;;;;;;;49.40;21.30;;;8.40;99.90;;;;;;5024478;28;20022;-38
2022/03/17 12:51:11;;;;;;;47.47;21.48;;;8.40;99.90;;;;;;5021484;28;20467;-37